Madison, Indiana
Current Conditions -  °F | °C
As of 3:53 PM on Monday 24 Nov 2014 (Local Time) from KLOU Reporting Station
Overcast Overcast  
Wind Chill: 42°   Ceiling: 4200
Heat Index: 48°   Visibility: 10mi
Dew Point: 33°   Wind: 14mph
Humidity: 56%   Direction: 240°WSW
Pressure: 29.77"   Gusts: 22mph
Location:  38.74°N, 85.38°W
Report Text: KLOU 242053Z AUTO 24012G19KT 10SM OVC042 09/01 A2977 RMK AO2 SLP081 T00890006 53028
Loading
Personal Weather Stations






























Interactive Weather Map New forecast layout! Learn more

10-Day Weather Forecast

Advertisements
Track Severe Weather on mobile